Time;durP1;ratioP1;P1;durP2;ratioP2;P2;SDS_P1;SDS_P2;PMS_P1;PMS_P2;Temp;Humidity;BMP_temperature;BMP_pressure;BME280_temperature;BME280_humidity;BME280_pressure;Samples;Min_cycle;Max_cycle;Signal;HPM_P1;HPM_P2
2023/06/01 00:00:44;;;;;;;3.72;2.25;;;19.60;61.20;;;;;;6121327;23;20013;-74
2023/06/01 00:03:10;;;;;;;3.40;1.92;;;19.60;61.40;;;;;;6120440;23;20446;-76
2023/06/01 00:05:35;;;;;;;3.72;1.70;;;19.60;61.70;;;;;;6120901;23;20014;-76
2023/06/01 00:08:04;;;;;;;4.57;2.00;;;19.50;62.20;;;;;;6121006;23;20018;-72
2023/06/01 00:10:29;;;;;;;3.20;1.60;;;19.50;62.50;;;;;;6122092;23;20044;-73
2023/06/01 00:12:55;;;;;;;3.15;1.60;;;19.40;62.90;;;;;;6121092;23;20018;-74
2023/06/01 00:15:21;;;;;;;3.08;1.95;;;19.40;63.00;;;;;;6122687;23;20025;-74
2023/06/01 00:17:51;;;;;;;7.45;2.42;;;19.40;63.10;;;;;;6121621;23;20014;-74
2023/06/01 00:20:17;;;;;;;3.55;1.58;;;19.40;63.20;;;;;;6121403;23;20347;-74
2023/06/01 00:22:43;;;;;;;8.05;2.10;;;19.30;63.50;;;;;;6122320;23;20006;-74
2023/06/01 00:25:09;;;;;;;4.30;2.33;;;19.30;63.70;;;;;;6121410;23;20097;-75
2023/06/01 00:27:35;;;;;;;4.18;1.60;;;19.30;63.90;;;;;;6121769;23;20400;-74
2023/06/01 00:30:02;;;;;;;5.32;1.83;;;19.20;64.00;;;;;;6120805;23;20017;-74
2023/06/01 00:32:27;;;;;;;4.82;1.73;;;19.20;64.00;;;;;;6121647;23;20369;-74
2023/06/01 00:34:53;;;;;;;11.20;2.20;;;19.20;64.50;;;;;;6121056;23;20025;-74
2023/06/01 00:37:18;;;;;;;6.30;1.98;;;19.20;64.60;;;;;;6123358;23;20009;-74
2023/06/01 00:39:44;;;;;;;3.20;1.77;;;19.10;64.60;;;;;;6124025;23;20420;-76
2023/06/01 00:42:10;;;;;;;2.78;1.80;;;19.10;64.90;;;;;;6123947;23;20085;-74
2023/06/01 00:44:35;;;;;;;5.43;3.05;;;19.10;64.90;;;;;;6123996;23;20010;-75
2023/06/01 00:47:01;;;;;;;3.78;1.42;;;19.10;65.20;;;;;;6124203;23;20050;-74
2023/06/01 00:49:27;;;;;;;6.78;1.95;;;19.00;65.30;;;;;;6123774;23;20442;-76
2023/06/01 00:51:53;;;;;;;2.95;1.67;;;19.00;65.40;;;;;;6124059;23;20013;-76
2023/06/01 00:54:20;;;;;;;2.90;1.90;;;19.00;65.50;;;;;;6123267;23;20026;-76
2023/06/01 00:56:46;;;;;;;3.53;1.92;;;19.00;65.70;;;;;;6097667;23;20010;-76
2023/06/01 00:59:13;;;;;;;6.20;2.97;;;19.00;65.80;;;;;;6123439;23;20009;-76
2023/06/01 01:01:42;;;;;;;3.65;1.70;;;19.00;65.90;;;;;;6123016;23;20010;-76
2023/06/01 01:04:09;;;;;;;3.80;2.10;;;18.90;66.00;;;;;;6123607;23;20010;-77
2023/06/01 01:07:01;;;;;;;4.80;1.77;;;18.90;66.20;;;;;;6123767;23;20014;-76
2023/06/01 01:09:50;;;;;;;3.13;1.77;;;18.80;66.60;;;;;;6122518;23;20010;-75
2023/06/01 01:12:32;;;;;;;5.25;1.73;;;18.80;66.80;;;;;;6123888;23;20085;-74
2023/06/01 01:15:12;;;;;;;3.25;1.80;;;18.80;66.90;;;;;;6123198;23;20053;-75
2023/06/01 01:17:42;;;;;;;4.70;2.10;;;18.70;67.00;;;;;;6122844;23;20447;-75
2023/06/01 01:20:20;;;;;;;3.25;1.83;;;18.70;67.30;;;;;;6122778;23;20049;-75
2023/06/01 01:23:12;;;;;;;4.10;2.25;;;18.70;67.50;;;;;;6123457;23;20014;-75
2023/06/01 01:26:03;;;;;;;6.65;2.45;;;18.60;67.70;;;;;;6122232;23;20164;-75
2023/06/01 01:28:49;;;;;;;6.50;2.42;;;18.60;67.90;;;;;;6122256;23;20014;-74
2023/06/01 01:31:22;;;;;;;4.53;2.08;;;18.50;68.10;;;;;;6121133;23;20095;-75
2023/06/01 01:33:49;;;;;;;5.88;2.47;;;18.40;68.30;;;;;;6123307;23;20105;-74
2023/06/01 01:36:16;;;;;;;3.17;1.80;;;18.40;68.50;;;;;;6123026;23;20018;-74
2023/06/01 01:38:41;;;;;;;3.55;1.60;;;18.40;68.80;;;;;;6123544;23;20018;-74
2023/06/01 01:41:07;;;;;;;6.38;2.00;;;18.40;69.00;;;;;;6122660;23;20085;-74
2023/06/01 01:43:33;;;;;;;4.43;1.98;;;18.30;69.10;;;;;;6122619;23;20069;-70
2023/06/01 01:46:06;;;;;;;4.20;1.85;;;18.30;69.30;;;;;;6121302;23;20013;-69
2023/06/01 01:48:50;;;;;;;5.95;2.17;;;18.30;70.00;;;;;;6121826;23;20017;-68
2023/06/01 01:51:27;;;;;;;4.32;1.90;;;18.20;69.60;;;;;;6122637;23;20020;-68
2023/06/01 01:53:54;;;;;;;3.58;1.90;;;18.20;69.60;;;;;;6121902;23;20018;-69
2023/06/01 01:56:21;;;;;;;3.15;1.80;;;18.20;69.90;;;;;;6122800;23;20065;-68
2023/06/01 01:58:47;;;;;;;5.30;2.05;;;18.10;70.00;;;;;;6122739;23;20385;-68
2023/06/01 02:01:13;;;;;;;2.85;1.90;;;18.00;70.60;;;;;;6122475;23;20782;-69
2023/06/01 02:03:39;;;;;;;4.35;2.05;;;18.00;70.80;;;;;;6122352;23;20009;-69
2023/06/01 02:06:05;;;;;;;5.03;2.50;;;17.90;70.90;;;;;;6123319;23;20018;-69
2023/06/01 02:08:31;;;;;;;3.38;1.73;;;17.80;71.50;;;;;;6122616;23;20041;-69
2023/06/01 02:10:56;;;;;;;3.75;2.53;;;17.70;71.70;;;;;;6093786;23;20363;-69
2023/06/01 02:13:22;;;;;;;4.47;2.20;;;17.70;71.60;;;;;;6121000;23;20024;-70
2023/06/01 02:15:47;;;;;;;4.15;2.40;;;17.70;71.80;;;;;;6122356;23;20014;-69
2023/06/01 02:18:17;;;;;;;4.85;2.00;;;17.70;72.10;;;;;;6097303;23;20012;-69
2023/06/01 02:20:44;;;;;;;3.35;1.90;;;17.60;72.30;;;;;;6121271;23;20388;-68
2023/06/01 02:23:10;;;;;;;7.05;2.30;;;17.60;72.50;;;;;;6123727;23;20117;-67
2023/06/01 02:25:36;;;;;;;3.47;1.77;;;17.60;72.80;;;;;;6123143;23;20062;-67
2023/06/01 02:28:01;;;;;;;4.85;2.17;;;17.50;72.70;;;;;;6122920;23;20009;-67
2023/06/01 02:30:27;;;;;;;6.32;2.00;;;17.50;73.20;;;;;;6123036;23;20017;-68
2023/06/01 02:32:53;;;;;;;4.05;1.90;;;17.40;73.50;;;;;;6121975;23;20443;-69
2023/06/01 02:35:18;;;;;;;4.65;2.17;;;17.30;73.70;;;;;;6122689;23;20010;-68
2023/06/01 02:37:44;;;;;;;5.70;2.80;;;17.30;73.80;;;;;;6121740;23;20007;-67
2023/06/01 02:40:11;;;;;;;7.35;2.33;;;17.30;74.00;;;;;;6120960;23;20017;-67
2023/06/01 02:42:38;;;;;;;3.15;2.17;;;17.20;74.30;;;;;;6123233;23;20010;-67
2023/06/01 02:45:07;;;;;;;9.88;2.58;;;17.20;74.40;;;;;;6122358;23;20681;-68
2023/06/01 02:47:33;;;;;;;5.25;2.58;;;17.10;74.70;;;;;;6122099;23;20045;-67
2023/06/01 02:49:59;;;;;;;3.47;2.03;;;17.10;74.90;;;;;;6121982;23;20081;-66
2023/06/01 02:52:24;;;;;;;4.50;2.58;;;17.10;75.20;;;;;;6122112;23;20002;-67
2023/06/01 02:54:50;;;;;;;4.10;2.28;;;17.00;75.20;;;;;;6123021;23;20349;-67
2023/06/01 02:57:15;;;;;;;7.00;2.50;;;17.00;75.30;;;;;;6123257;23;20431;-67
2023/06/01 02:59:41;;;;;;;5.38;2.45;;;17.00;75.50;;;;;;6122314;23;20010;-69
2023/06/01 03:02:07;;;;;;;5.65;3.15;;;17.00;75.80;;;;;;6121875;23;20073;-69
2023/06/01 03:04:32;;;;;;;5.30;2.78;;;17.00;76.00;;;;;;6122458;23;20026;-69
2023/06/01 03:06:59;;;;;;;7.22;2.83;;;16.90;76.10;;;;;;6121714;23;20016;-69
2023/06/01 03:09:25;;;;;;;7.25;2.60;;;16.90;76.40;;;;;;6122282;23;20021;-75
2023/06/01 03:11:50;;;;;;;5.63;2.97;;;16.90;76.60;;;;;;6122676;23;20561;-74
2023/06/01 03:14:16;;;;;;;5.88;2.63;;;16.80;76.90;;;;;;6121620;23;20077;-74
2023/06/01 03:16:41;;;;;;;5.57;3.42;;;16.70;77.30;;;;;;6096459;23;20399;-73
2023/06/01 03:19:07;;;;;;;4.05;2.88;;;16.60;77.50;;;;;;6121143;23;20010;-72
2023/06/01 03:21:32;;;;;;;4.95;2.78;;;16.60;77.70;;;;;;6121754;23;20038;-71
2023/06/01 03:23:58;;;;;;;6.13;3.20;;;16.50;78.00;;;;;;6120153;23;20511;-72
2023/06/01 03:26:24;;;;;;;7.03;3.55;;;16.50;78.70;;;;;;6121520;23;20435;-72
2023/06/01 03:28:50;;;;;;;5.65;2.90;;;16.40;78.70;;;;;;6121652;23;20029;-71
2023/06/01 03:31:16;;;;;;;6.18;2.90;;;16.40;79.00;;;;;;6121138;23;20021;-71
2023/06/01 03:33:42;;;;;;;8.63;3.67;;;16.30;79.20;;;;;;6120656;23;20057;-71
2023/06/01 03:36:08;;;;;;;6.07;2.95;;;16.30;79.70;;;;;;6120115;23;20677;-70
2023/06/01 03:38:34;;;;;;;5.75;3.10;;;16.20;79.90;;;;;;6122948;23;20006;-72
2023/06/01 03:41:00;;;;;;;7.25;3.53;;;16.20;80.60;;;;;;6120780;23;20014;-72
2023/06/01 03:43:26;;;;;;;7.32;3.70;;;16.10;80.90;;;;;;6120870;23;20009;-72
2023/06/01 03:45:52;;;;;;;7.22;3.15;;;16.10;81.00;;;;;;6120740;23;20330;-71
2023/06/01 03:48:18;;;;;;;6.60;3.60;;;16.00;81.60;;;;;;6119489;23;20025;-71
2023/06/01 03:50:43;;;;;;;10.30;3.50;;;16.00;81.90;;;;;;6095428;23;20392;-72
2023/06/01 03:53:09;;;;;;;8.25;4.40;;;16.00;82.00;;;;;;6121778;23;20010;-65
2023/06/01 03:55:35;;;;;;;7.60;3.72;;;16.00;82.10;;;;;;6119913;23;20014;-66
2023/06/01 03:58:02;;;;;;;6.18;4.13;;;16.00;82.20;;;;;;6113971;23;20313;-67
2023/06/01 04:00:28;;;;;;;7.93;3.83;;;15.90;83.30;;;;;;6090650;23;20010;-67
2023/06/01 04:02:56;;;;;;;9.38;4.82;;;15.90;83.10;;;;;;6119848;23;20317;-70
2023/06/01 04:05:23;;;;;;;11.02;4.35;;;15.80;83.60;;;;;;6120686;23;20016;-71
2023/06/01 04:07:52;;;;;;;10.38;4.68;;;15.80;83.80;;;;;;6122088;23;20009;-72
2023/06/01 04:10:18;;;;;;;7.43;4.35;;;15.70;84.20;;;;;;6120151;23;20343;-72
2023/06/01 04:12:45;;;;;;;14.52;4.95;;;15.70;84.90;;;;;;6121254;23;20088;-73
2023/06/01 04:15:12;;;;;;;7.70;3.80;;;15.70;84.90;;;;;;6123297;23;20029;-72
2023/06/01 04:17:38;;;;;;;11.73;4.22;;;15.60;85.30;;;;;;6123785;23;20404;-71
2023/06/01 04:20:06;;;;;;;6.38;3.60;;;15.60;85.10;;;;;;6122846;23;20446;-72
2023/06/01 04:22:32;;;;;;;10.00;4.97;;;15.70;85.60;;;;;;6124742;23;20032;-71
2023/06/01 04:24:58;;;;;;;8.25;3.97;;;15.60;85.90;;;;;;6123583;23;20026;-71
2023/06/01 04:27:24;;;;;;;10.63;5.10;;;15.60;86.40;;;;;;6124260;23;20507;-71
2023/06/01 04:29:51;;;;;;;9.90;4.35;;;15.50;86.90;;;;;;6122861;23;20010;-67
2023/06/01 04:32:21;;;;;;;8.07;4.20;;;15.50;87.10;;;;;;6123435;23;20010;-70
2023/06/01 04:34:49;;;;;;;10.10;4.15;;;15.50;87.10;;;;;;6122783;23;20017;-70
2023/06/01 04:37:19;;;;;;;10.48;5.30;;;15.50;87.20;;;;;;6123179;23;20436;-65
2023/06/01 04:39:48;;;;;;;9.55;4.50;;;15.70;87.70;;;;;;6123076;23;20510;-65
2023/06/01 04:42:16;;;;;;;12.55;4.72;;;15.60;88.30;;;;;;6124173;23;20017;-63
2023/06/01 04:44:43;;;;;;;7.15;4.97;;;15.70;88.40;;;;;;6123582;23;20405;-65
2023/06/01 04:47:08;;;;;;;10.35;5.57;;;15.70;88.00;;;;;;6123744;23;20446;-64
2023/06/01 04:49:36;;;;;;;13.77;5.88;;;15.80;87.90;;;;;;6123232;23;20002;-64
2023/06/01 04:52:02;;;;;;;8.60;5.25;;;15.80;88.10;;;;;;6123262;23;20408;-65
2023/06/01 04:54:27;;;;;;;12.23;5.25;;;15.70;88.80;;;;;;6124224;23;20018;-65
2023/06/01 04:56:53;;;;;;;9.43;5.18;;;15.70;88.30;;;;;;6122715;23;20002;-65
2023/06/01 04:59:21;;;;;;;9.02;5.50;;;15.70;88.60;;;;;;6122705;23;20328;-63
2023/06/01 05:01:46;;;;;;;9.75;5.47;;;15.70;88.70;;;;;;6123484;23;20014;-64
2023/06/01 05:04:12;;;;;;;10.82;5.97;;;15.70;88.70;;;;;;6122136;23;20089;-64
2023/06/01 05:06:38;;;;;;;14.65;7.30;;;15.80;88.80;;;;;;6123144;23;20018;-65
2023/06/01 05:09:04;;;;;;;10.93;6.40;;;15.70;88.90;;;;;;6123303;23;20014;-64
2023/06/01 05:11:30;;;;;;;16.70;9.40;;;15.60;88.90;;;;;;6123819;23;20002;-64
2023/06/01 05:14:01;;;;;;;14.27;7.88;;;15.50;90.00;;;;;;6123333;23;20025;-65
2023/06/01 05:16:27;;;;;;;10.88;6.50;;;15.40;89.50;;;;;;6122710;23;20687;-65
2023/06/01 05:18:53;;;;;;;10.43;6.57;;;15.40;89.70;;;;;;6121951;23;20020;-64
2023/06/01 05:21:22;;;;;;;11.27;5.72;;;15.40;89.80;;;;;;6122519;23;20034;-64
2023/06/01 05:23:47;;;;;;;9.63;6.35;;;15.40;89.90;;;;;;6120941;23;20025;-64
2023/06/01 05:26:13;;;;;;;13.00;6.43;;;15.40;89.90;;;;;;6123503;23;20009;-64
2023/06/01 05:28:39;;;;;;;8.50;5.55;;;15.40;89.80;;;;;;6122225;23;20018;-63
2023/06/01 05:31:05;;;;;;;11.38;6.45;;;15.40;90.00;;;;;;6122657;23;20476;-65
2023/06/01 05:33:31;;;;;;;9.95;6.63;;;15.40;90.00;;;;;;6122249;23;20335;-64
2023/06/01 05:35:56;;;;;;;10.52;6.85;;;15.30;90.10;;;;;;6122574;23;20356;-65
2023/06/01 05:38:22;;;;;;;10.60;7.00;;;15.20;90.30;;;;;;6122546;23;20010;-63
2023/06/01 05:40:47;;;;;;;15.90;8.45;;;15.20;90.30;;;;;;6122115;23;20420;-64
2023/06/01 05:43:15;;;;;;;12.25;6.47;;;15.30;90.30;;;;;;6123125;23;20006;-64
2023/06/01 05:45:41;;;;;;;10.00;6.82;;;15.30;90.30;;;;;;6096624;23;20029;-64
2023/06/01 05:48:06;;;;;;;11.77;5.35;;;15.30;90.30;;;;;;6121786;23;20332;-65
2023/06/01 05:50:32;;;;;;;11.50;5.82;;;15.30;90.40;;;;;;6123295;23;20030;-65
2023/06/01 05:52:57;;;;;;;13.45;7.95;;;15.30;90.60;;;;;;6122875;23;20006;-64
2023/06/01 05:55:23;;;;;;;14.00;9.60;;;15.30;90.40;;;;;;6123060;23;20049;-65
2023/06/01 05:57:49;;;;;;;13.52;9.57;;;15.30;90.30;;;;;;6123339;23;20085;-65
2023/06/01 06:00:15;;;;;;;13.23;8.85;;;15.40;90.20;;;;;;6121587;23;20018;-64
2023/06/01 06:02:42;;;;;;;14.48;8.85;;;15.40;90.00;;;;;;6122457;23;20002;-65
2023/06/01 06:05:09;;;;;;;12.18;8.43;;;15.30;90.00;;;;;;6122208;23;20061;-65
2023/06/01 06:07:35;;;;;;;9.98;6.22;;;15.30;90.00;;;;;;6122768;23;20036;-65
2023/06/01 06:10:01;;;;;;;12.90;7.00;;;15.20;90.10;;;;;;6122214;23;20009;-62
2023/06/01 06:12:27;;;;;;;18.92;8.05;;;15.30;90.00;;;;;;6122251;23;20077;-64
2023/06/01 06:14:53;;;;;;;12.02;6.10;;;15.40;90.00;;;;;;6122069;23;20055;-65
2023/06/01 06:17:19;;;;;;;8.45;5.95;;;15.50;89.80;;;;;;6122792;23;20006;-65
2023/06/01 06:19:47;;;;;;;11.70;6.90;;;15.60;89.60;;;;;;6122322;23;20018;-64
2023/06/01 06:22:13;;;;;;;12.80;6.63;;;15.60;89.40;;;;;;6122087;23;20490;-63
2023/06/01 06:24:38;;;;;;;12.48;6.22;;;15.70;89.30;;;;;;6081085;23;20105;-64
2023/06/01 06:27:05;;;;;;;11.75;5.63;;;15.90;88.90;;;;;;6092678;23;20020;-64
2023/06/01 06:29:31;;;;;;;9.10;6.05;;;16.00;88.30;;;;;;6092057;23;20018;-62
2023/06/01 06:31:57;;;;;;;7.53;4.53;;;16.00;88.10;;;;;;6090192;23;20007;-65
2023/06/01 06:34:22;;;;;;;13.35;5.78;;;16.00;87.70;;;;;;6090966;23;20049;-66
2023/06/01 06:36:48;;;;;;;10.20;4.93;;;16.20;87.40;;;;;;6092544;23;20014;-65
2023/06/01 06:39:15;;;;;;;10.55;5.80;;;16.30;87.20;;;;;;6092287;23;20007;-65
2023/06/01 06:41:41;;;;;;;11.27;4.80;;;16.40;86.90;;;;;;6091629;23;20010;-67
2023/06/01 06:44:06;;;;;;;9.88;4.63;;;16.50;86.40;;;;;;6091779;23;20018;-66
2023/06/01 06:46:32;;;;;;;5.78;3.78;;;16.50;86.10;;;;;;6091569;23;20038;-65
2023/06/01 06:48:58;;;;;;;13.20;5.88;;;16.70;86.20;;;;;;6066024;23;20459;-65
2023/06/01 06:51:23;;;;;;;9.15;4.85;;;16.80;85.60;;;;;;6092635;23;20353;-65
2023/06/01 06:53:49;;;;;;;12.27;4.88;;;16.90;84.70;;;;;;6091378;23;20018;-66
2023/06/01 06:56:15;;;;;;;10.43;5.57;;;16.80;83.50;;;;;;6092828;23;20047;-66
2023/06/01 06:58:41;;;;;;;10.05;4.57;;;16.80;83.70;;;;;;6092207;23;20500;-66
2023/06/01 07:01:07;;;;;;;11.20;4.45;;;16.90;83.60;;;;;;6090571;23;20013;-66
2023/06/01 07:03:33;;;;;;;7.40;4.40;;;17.00;83.20;;;;;;6093391;23;20011;-65
2023/06/01 07:05:58;;;;;;;9.50;4.93;;;17.00;83.00;;;;;;6091910;23;20010;-65
2023/06/01 07:08:24;;;;;;;10.77;4.53;;;16.90;82.30;;;;;;6091402;23;20814;-63
2023/06/01 07:10:49;;;;;;;10.38;4.22;;;16.80;82.40;;;;;;6091308;23;20062;-65
2023/06/01 07:13:15;;;;;;;10.80;4.57;;;16.80;82.20;;;;;;6092854;23;20457;-66
2023/06/01 07:15:41;;;;;;;5.28;4.03;;;16.80;82.10;;;;;;6092627;23;20082;-65
2023/06/01 07:18:06;;;;;;;8.98;4.38;;;16.80;82.20;;;;;;6091781;23;20425;-66
2023/06/01 07:20:32;;;;;;;9.27;4.47;;;16.90;82.30;;;;;;6092092;23;20014;-66
2023/06/01 07:22:58;;;;;;;6.60;3.97;;;16.90;81.70;;;;;;6091576;23;20006;-66
2023/06/01 07:25:24;;;;;;;9.43;4.72;;;17.00;81.60;;;;;;6114527;23;20097;-66
2023/06/01 07:27:50;;;;;;;8.18;4.07;;;17.00;81.30;;;;;;6120884;23;20009;-66
2023/06/01 07:30:16;;;;;;;6.15;3.58;;;17.00;81.40;;;;;;6118655;23;20006;-65
2023/06/01 07:32:42;;;;;;;9.68;4.50;;;17.00;81.20;;;;;;6121267;23;20009;-64
2023/06/01 07:35:09;;;;;;;10.80;4.85;;;17.00;81.20;;;;;;6122087;23;20681;-68
2023/06/01 07:37:35;;;;;;;7.57;4.97;;;17.00;80.60;;;;;;6120955;23;20042;-65
2023/06/01 07:40:01;;;;;;;6.15;3.80;;;16.90;80.80;;;;;;6121582;23;20441;-65
2023/06/01 07:42:26;;;;;;;7.63;4.00;;;16.90;80.50;;;;;;6121631;23;20009;-66
2023/06/01 07:44:53;;;;;;;10.65;3.53;;;16.70;80.70;;;;;;6120307;23;20085;-65
2023/06/01 07:47:19;;;;;;;7.93;4.93;;;16.70;81.00;;;;;;6121385;23;20071;-65
2023/06/01 07:49:45;;;;;;;9.50;4.93;;;16.70;80.90;;;;;;6096775;23;20026;-66
2023/06/01 07:52:10;;;;;;;9.40;4.72;;;16.70;80.80;;;;;;6123398;23;20064;-66
2023/06/01 07:54:37;;;;;;;9.02;4.10;;;16.60;80.70;;;;;;6094959;23;20348;-65
2023/06/01 07:57:04;;;;;;;8.98;4.95;;;16.60;81.10;;;;;;6120493;23;20443;-66
2023/06/01 07:59:30;;;;;;;10.82;4.80;;;16.60;81.20;;;;;;6120748;23;20032;-65
2023/06/01 08:01:56;;;;;;;6.97;4.63;;;16.70;81.20;;;;;;6121555;23;20010;-66
2023/06/01 08:04:22;;;;;;;7.82;4.25;;;16.70;81.00;;;;;;6121807;23;20037;-65
2023/06/01 08:06:52;;;;;;;8.82;4.43;;;16.70;81.20;;;;;;6122817;23;20010;-65
2023/06/01 08:09:19;;;;;;;6.95;4.50;;;16.80;81.20;;;;;;6121087;23;20340;-65
2023/06/01 08:11:45;;;;;;;8.73;4.60;;;16.80;81.00;;;;;;6122883;23;20029;-66
2023/06/01 08:14:11;;;;;;;12.30;4.07;;;16.90;80.60;;;;;;6120243;23;20018;-65
2023/06/01 08:16:36;;;;;;;11.57;5.47;;;16.90;80.50;;;;;;6120963;23;20040;-62
2023/06/01 08:19:03;;;;;;;10.02;4.90;;;16.90;80.50;;;;;;6121214;23;20093;-66
2023/06/01 08:21:28;;;;;;;8.10;4.60;;;16.90;80.30;;;;;;6122860;23;20068;-65
2023/06/01 08:23:54;;;;;;;9.48;4.55;;;16.90;80.40;;;;;;6120883;23;20022;-63
2023/06/01 08:26:21;;;;;;;11.57;4.75;;;17.00;80.50;;;;;;6117730;23;20036;-63
2023/06/01 08:28:53;;;;;;;7.93;3.83;;;17.10;80.40;;;;;;6120700;23;20435;-65
2023/06/01 08:31:20;;;;;;;11.52;4.85;;;17.10;80.20;;;;;;6121202;23;20006;-65
2023/06/01 08:33:47;;;;;;;10.27;5.10;;;17.20;80.20;;;;;;6119952;23;20025;-63
2023/06/01 08:36:12;;;;;;;10.43;5.40;;;17.20;79.70;;;;;;6120995;23;20006;-65
2023/06/01 08:38:39;;;;;;;14.38;4.97;;;17.30;79.90;;;;;;6120670;23;20020;-65
2023/06/01 08:41:17;;;;;;;15.32;4.85;;;17.40;79.70;;;;;;6120235;23;20010;-65
2023/06/01 08:43:47;;;;;;;11.95;5.35;;;17.50;79.50;;;;;;6119898;23;20010;-65
2023/06/01 08:46:15;;;;;;;8.50;4.65;;;17.60;79.10;;;;;;6121233;23;20016;-64
2023/06/01 08:48:43;;;;;;;14.57;4.40;;;17.60;78.60;;;;;;6121015;23;20021;-65
2023/06/01 08:51:09;;;;;;;15.52;4.93;;;17.70;78.40;;;;;;6121227;23;20006;-65
2023/06/01 08:53:35;;;;;;;7.07;4.05;;;17.70;78.40;;;;;;6119825;23;20481;-65
2023/06/01 08:56:03;;;;;;;8.82;3.85;;;17.70;78.20;;;;;;6121441;23;20121;-65
2023/06/01 08:58:30;;;;;;;15.02;5.07;;;17.70;78.00;;;;;;6122220;23;20081;-65
2023/06/01 09:00:57;;;;;;;10.52;5.10;;;17.80;78.10;;;;;;6122420;23;20010;-67
2023/06/01 09:03:24;;;;;;;19.70;5.80;;;17.80;77.80;;;;;;6122407;23;20013;-67
2023/06/01 09:05:49;;;;;;;10.90;4.50;;;17.90;77.80;;;;;;6121838;23;20105;-67
2023/06/01 09:08:15;;;;;;;22.00;6.47;;;18.00;77.60;;;;;;6122623;23;20053;-67
2023/06/01 09:10:41;;;;;;;22.25;6.10;;;18.10;77.30;;;;;;6121516;23;20421;-67
2023/06/01 09:13:07;;;;;;;25.20;7.45;;;18.20;77.40;;;;;;6122917;23;20016;-69
2023/06/01 09:15:33;;;;;;;9.23;3.92;;;18.30;77.20;;;;;;6122653;23;20093;-67
2023/06/01 09:18:12;;;;;;;27.13;6.25;;;18.40;77.20;;;;;;6123358;23;20044;-67
2023/06/01 09:20:39;;;;;;;13.27;5.18;;;18.50;77.20;;;;;;6121661;23;20441;-67
2023/06/01 09:23:04;;;;;;;20.52;6.75;;;18.60;77.20;;;;;;6096052;23;20014;-67
2023/06/01 09:25:32;;;;;;;32.22;5.20;;;18.70;77.00;;;;;;6120414;23;20029;-67
2023/06/01 09:28:00;;;;;;;18.35;5.22;;;18.80;76.50;;;;;;6121942;23;20006;-67
2023/06/01 09:30:37;;;;;;;26.05;6.28;;;18.90;76.10;;;;;;6095536;23;20017;-68
2023/06/01 09:33:18;;;;;;;11.73;4.90;;;19.00;75.80;;;;;;6121594;23;20658;-66
2023/06/01 09:35:46;;;;;;;61.25;8.35;;;19.00;75.40;;;;;;6109114;23;20013;-67
2023/06/01 09:38:26;;;;;;;8.55;3.60;;;19.10;75.40;;;;;;6122063;23;20006;-67
2023/06/01 09:41:02;;;;;;;13.48;4.40;;;19.20;74.60;;;;;;6120911;23;20079;-67
2023/06/01 09:43:27;;;;;;;23.30;6.25;;;19.20;74.20;;;;;;6121660;23;20017;-67
2023/06/01 09:46:13;;;;;;;8.30;3.78;;;19.20;74.30;;;;;;6121283;23;20010;-67
2023/06/01 09:48:39;;;;;;;14.02;4.75;;;19.30;74.00;;;;;;6121777;23;20405;-64
2023/06/01 09:51:22;;;;;;;55.33;8.68;;;19.30;73.50;;;;;;6121474;23;20021;-65
2023/06/01 09:53:47;;;;;;;34.50;7.28;;;19.30;73.60;;;;;;6121896;23;20018;-64
2023/06/01 09:56:14;;;;;;;66.55;12.57;;;19.40;73.50;;;;;;6122425;23;20065;-65
2023/06/01 09:58:40;;;;;;;8.82;4.03;;;19.40;73.00;;;;;;6121853;23;20009;-65
2023/06/01 10:01:08;;;;;;;21.27;5.15;;;19.40;72.50;;;;;;6121297;23;20013;-66
2023/06/01 10:03:36;;;;;;;42.55;8.43;;;19.40;72.60;;;;;;6122381;23;20088;-66
2023/06/01 10:06:03;;;;;;;11.18;5.05;;;19.50;72.90;;;;;;6120176;23;20005;-65
2023/06/01 10:08:30;;;;;;;9.88;4.95;;;19.60;72.50;;;;;;6121264;23;20036;-66
2023/06/01 10:10:56;;;;;;;23.65;6.28;;;19.70;72.40;;;;;;6122999;23;20009;-65
2023/06/01 10:13:24;;;;;;;10.05;4.25;;;19.70;72.40;;;;;;6123443;23;20037;-65
2023/06/01 10:15:54;;;;;;;22.15;7.20;;;19.80;72.20;;;;;;6121800;23;20014;-65
2023/06/01 10:18:21;;;;;;;26.25;5.80;;;19.90;72.40;;;;;;6123236;23;20049;-67
2023/06/01 10:20:46;;;;;;;41.13;9.07;;;19.90;72.20;;;;;;6122515;23;20048;-66
2023/06/01 10:23:12;;;;;;;28.85;8.00;;;20.00;72.00;;;;;;6123231;23;20002;-65
2023/06/01 10:25:46;;;;;;;48.25;14.90;;;20.10;71.80;;;;;;6121615;23;20029;-65
2023/06/01 10:28:13;;;;;;;9.77;6.35;;;20.10;71.60;;;;;;6123409;23;20013;-65
2023/06/01 10:30:39;;;;;;;9.45;5.38;;;20.10;71.00;;;;;;6121893;23;20033;-66
2023/06/01 10:33:06;;;;;;;12.02;5.50;;;20.20;71.00;;;;;;6123361;23;20396;-66
2023/06/01 10:35:32;;;;;;;10.70;5.22;;;20.20;70.70;;;;;;6121989;23;20024;-65
2023/06/01 10:38:07;;;;;;;8.27;4.90;;;20.20;70.30;;;;;;6122904;23;20010;-66
2023/06/01 10:40:36;;;;;;;13.88;6.03;;;20.30;70.30;;;;;;6121736;23;20388;-65
2023/06/01 10:43:02;;;;;;;33.97;10.23;;;20.30;70.20;;;;;;6122829;23;20010;-65
2023/06/01 10:45:35;;;;;;;39.13;9.57;;;20.40;70.10;;;;;;6122566;23;20073;-66
2023/06/01 10:48:06;;;;;;;24.10;7.40;;;20.50;70.20;;;;;;6123237;23;20048;-65
2023/06/01 10:50:32;;;;;;;111.85;14.45;;;20.60;69.90;;;;;;6122888;23;20403;-64
2023/06/01 10:53:24;;;;;;;20.40;6.43;;;20.60;70.60;;;;;;6122275;23;20037;-65
2023/06/01 10:56:23;;;;;;;22.05;7.35;;;20.70;69.70;;;;;;6122661;23;20412;-66
2023/06/01 10:59:07;;;;;;;30.95;7.78;;;20.80;69.20;;;;;;6121828;23;20010;-66
2023/06/01 11:01:37;;;;;;;15.73;6.88;;;20.90;69.40;;;;;;6122757;23;20120;-65
2023/06/01 11:04:04;;;;;;;33.50;8.68;;;20.90;68.90;;;;;;6121530;23;20013;-65
2023/06/01 11:06:33;;;;;;;28.17;9.52;;;20.90;68.70;;;;;;6096395;23;20061;-66
2023/06/01 11:09:00;;;;;;;25.88;9.25;;;21.00;69.00;;;;;;6121086;23;20010;-65
2023/06/01 11:11:50;;;;;;;12.45;5.82;;;21.00;69.00;;;;;;6122677;23;20076;-66
2023/06/01 11:14:17;;;;;;;13.38;6.95;;;21.00;68.00;;;;;;6121877;23;20021;-66
2023/06/01 11:16:44;;;;;;;13.73;5.80;;;21.00;68.20;;;;;;6122721;23;20005;-65
2023/06/01 11:19:10;;;;;;;16.02;5.82;;;21.00;68.40;;;;;;6122531;23;20324;-65
2023/06/01 11:21:43;;;;;;;14.63;5.85;;;21.10;68.50;;;;;;6121869;23;20006;-65
2023/06/01 11:24:13;;;;;;;12.00;6.13;;;21.20;68.30;;;;;;6121172;23;20025;-64
2023/06/01 11:26:44;;;;;;;9.98;6.80;;;21.30;68.40;;;;;;6121469;23;20038;-65
2023/06/01 11:29:17;;;;;;;10.07;5.22;;;21.30;68.20;;;;;;6121867;23;20044;-66
2023/06/01 11:32:09;;;;;;;17.33;6.10;;;21.30;68.10;;;;;;6122566;23;20379;-65
2023/06/01 11:34:38;;;;;;;16.75;5.95;;;21.30;67.90;;;;;;6115076;23;20029;-68
2023/06/01 11:37:05;;;;;;;9.68;5.63;;;21.30;68.20;;;;;;6122702;23;20006;-66
2023/06/01 11:39:31;;;;;;;17.02;6.80;;;21.30;67.90;;;;;;6121268;23;20018;-66
2023/06/01 11:42:07;;;;;;;9.75;5.90;;;21.40;67.60;;;;;;6121747;23;20072;-68
2023/06/01 11:44:34;;;;;;;14.98;6.43;;;21.30;67.50;;;;;;6121116;23;20010;-67
2023/06/01 11:47:00;;;;;;;10.10;5.50;;;21.40;67.80;;;;;;6122232;23;20006;-68
2023/06/01 11:49:27;;;;;;;10.80;4.57;;;21.40;67.40;;;;;;6120648;23;20332;-67
2023/06/01 11:51:53;;;;;;;9.60;5.13;;;21.40;67.30;;;;;;6122684;23;20021;-67
2023/06/01 11:54:28;;;;;;;21.52;6.10;;;21.50;67.20;;;;;;6122386;23;20116;-68
2023/06/01 11:56:55;;;;;;;69.82;10.20;;;21.50;67.20;;;;;;6122140;23;20010;-68
2023/06/01 11:59:21;;;;;;;64.28;11.27;;;21.60;67.50;;;;;;6122238;23;20052;-68
2023/06/01 12:01:48;;;;;;;23.42;7.20;;;21.70;67.60;;;;;;6096078;23;20002;-68
2023/06/01 12:04:19;;;;;;;13.18;5.03;;;21.80;67.30;;;;;;6120608;23;20021;-68
2023/06/01 12:06:45;;;;;;;17.52;5.40;;;21.80;67.30;;;;;;6110910;23;20099;-68
2023/06/01 12:09:13;;;;;;;19.20;6.65;;;21.80;67.00;;;;;;6121960;23;20041;-68
2023/06/01 12:11:40;;;;;;;9.68;5.55;;;21.90;67.20;;;;;;6122331;23;20093;-65
2023/06/01 12:14:06;;;;;;;8.93;4.93;;;21.90;67.10;;;;;;6117924;23;20018;-67
2023/06/01 12:16:56;;;;;;;6.18;4.80;;;21.80;66.60;;;;;;6121112;23;20021;-65
2023/06/01 12:19:22;;;;;;;8.15;4.78;;;21.80;66.70;;;;;;6119702;23;20116;-68
2023/06/01 12:21:53;;;;;;;8.05;4.57;;;21.90;66.70;;;;;;6122020;23;20125;-69
2023/06/01 12:24:30;;;;;;;7.00;4.15;;;21.90;66.50;;;;;;6120249;23;20120;-68
2023/06/01 12:26:59;;;;;;;9.05;5.30;;;21.90;66.40;;;;;;6122311;23;20006;-66
2023/06/01 12:29:55;;;;;;;11.32;5.68;;;22.00;66.30;;;;;;6119120;23;20052;-66
2023/06/01 12:32:22;;;;;;;16.95;4.57;;;22.10;66.40;;;;;;6097648;23;20137;-68
2023/06/01 12:35:05;;;;;;;8.95;4.15;;;22.20;65.70;;;;;;6122025;23;20089;-68
2023/06/01 12:37:32;;;;;;;21.10;5.53;;;22.30;65.90;;;;;;6125063;23;20018;-67
2023/06/01 12:39:59;;;;;;;10.70;4.35;;;22.20;65.70;;;;;;6122971;23;20461;-67
2023/06/01 12:42:36;;;;;;;9.52;4.30;;;22.30;65.40;;;;;;6123819;23;20018;-67
2023/06/01 12:45:02;;;;;;;7.63;4.45;;;22.40;65.10;;;;;;6122310;23;20033;-67
2023/06/01 12:47:38;;;;;;;16.38;5.22;;;22.50;64.50;;;;;;6122853;23;20064;-67